Time;durP1;ratioP1;P1;durP2;ratioP2;P2;SDS_P1;SDS_P2;PMS_P1;PMS_P2;Temp;Humidity;BMP_temperature;BMP_pressure;BME280_temperature;BME280_humidity;BME280_pressure;Samples;Min_cycle;Max_cycle;Signal;HPM_P1;HPM_P2
2024/01/14 00:00:48;;;;;;;;;;;;;;;;;;52944;1251;1057529;-79
2024/01/14 00:03:36;;;;;;;;;;;;;;;;;;52967;1251;1057074;-79
2024/01/14 00:06:03;;;;;;;;;;;;;;;;;;52919;1251;1005523;-79
2024/01/14 00:08:29;;;;;;;;;;;;;;;;;;52910;1251;1005193;-80
2024/01/14 00:10:56;;;;;;;;;;;;;;;;;;52930;1254;1058035;-79
2024/01/14 00:13:23;;;;;;;;;;;;;;;;;;52948;1251;1004770;-79
2024/01/14 00:15:49;;;;;;;;;;;;;;;;;;52907;1251;1039804;-79
2024/01/14 00:18:16;;;;;;;;;;;;;;;;;;52949;1251;1005075;-79
2024/01/14 00:20:42;;;;;;;;;;;;;;;;;;54187;1251;1045128;-79
2024/01/14 00:23:09;;;;;;;;;;;;;;;;;;54236;1250;1003070;-79
2024/01/14 00:25:36;;;;;;;;;;;;;;;;;;54177;1251;1060246;-79
2024/01/14 00:28:03;;;;;;;;;;;;;;;;;;54184;1251;1003369;-79
2024/01/14 00:30:30;;;;;;;;;;;;;;;;;;54172;1254;1057297;-79
2024/01/14 00:32:56;;;;;;;;;;;;;;;;;;54197;1250;1003425;-79
2024/01/14 00:35:23;;;;;;;;;;;;;;;;;;54149;1253;1058050;-79
2024/01/14 00:37:51;;;;;;;;;;;;;;;;;;54201;1251;1003537;-79
2024/01/14 00:40:17;;;;;;;;;;;;;;;;;;53704;1251;1037944;-79
2024/01/14 00:42:44;;;;;;;;;;;;;;;;;;52891;1252;1005572;-80
2024/01/14 00:45:11;;;;;;;;;;;;;;;;;;52988;1251;1046890;-80
2024/01/14 00:47:37;;;;;;;;;;;;;;;;;;52980;1254;1006216;-79
2024/01/14 00:50:04;;;;;;;;;;;;;;;;;;52889;1251;1060455;-79
2024/01/14 00:52:32;;;;;;;;;;;;;;;;;;53096;1251;1005867;-79
2024/01/14 00:54:59;;;;;;;;;;;;;;;;;;54195;1251;1057598;-80
2024/01/14 00:57:25;;;;;;;;;;;;;;;;;;52999;1251;1006001;-79
2024/01/14 00:59:52;;;;;;;;;;;;;;;;;;52909;1254;1057909;-79
2024/01/14 01:02:18;;;;;;;;;;;;;;;;;;52972;1251;1004630;-79
2024/01/14 01:04:45;;;;;;;;;;;;;;;;;;53388;1251;1038581;-80
2024/01/14 01:07:11;;;;;;;;;;;;;;;;;;52850;1251;1004757;-79
2024/01/14 01:09:38;;;;;;;;;;;;;;;;;;52952;1256;1045124;-79
2024/01/14 01:12:04;;;;;;;;;;;;;;;;;;52999;1251;1005029;-79
2024/01/14 01:14:31;;;;;;;;;;;;;;;;;;52920;1253;1059529;-79
2024/01/14 01:16:57;;;;;;;;;;;;;;;;;;52856;1251;1005347;-79
2024/01/14 01:19:24;;;;;;;;;;;;;;;;;;52894;1254;1056735;-79
2024/01/14 01:21:51;;;;;;;;;;;;;;;;;;52944;1250;1003732;-79
2024/01/14 01:24:17;;;;;;;;;;;;;;;;;;52911;1252;1059485;-79
2024/01/14 01:26:44;;;;;;;;;;;;;;;;;;52890;1254;1005625;-79
2024/01/14 01:29:10;;;;;;;;;;;;;;;;;;52956;1251;1038625;-79
2024/01/14 01:31:37;;;;;;;;;;;;;;;;;;52945;1251;1005499;-79
2024/01/14 01:34:03;;;;;;;;;;;;;;;;;;53845;1251;1045795;-79
2024/01/14 01:36:30;;;;;;;;;;;;;;;;;;54180;1251;1003106;-80
2024/01/14 01:38:57;;;;;;;;;;;;;;;;;;53486;1251;1060000;-79
2024/01/14 01:41:23;;;;;;;;;;;;;;;;;;52979;1251;1005625;-80
2024/01/14 01:43:49;;;;;;;;;;;;;;;;;;52956;1251;1056573;-79
2024/01/14 01:46:16;;;;;;;;;;;;;;;;;;52973;1251;1005356;-79
2024/01/14 01:48:43;;;;;;;;;;;;;;;;;;52942;1251;1058094;-79
2024/01/14 01:51:10;;;;;;;;;;;;;;;;;;53098;1251;1006218;-79
2024/01/14 01:53:36;;;;;;;;;;;;;;;;;;52914;1254;1041098;-79
2024/01/14 01:56:03;;;;;;;;;;;;;;;;;;52957;1252;1005718;-79
2024/01/14 01:58:30;;;;;;;;;;;;;;;;;;53224;1251;1044972;-80
2024/01/14 02:00:56;;;;;;;;;;;;;;;;;;54218;1251;1003446;-79
2024/01/14 02:03:23;;;;;;;;;;;;;;;;;;54180;1251;1060845;-79
2024/01/14 02:05:49;;;;;;;;;;;;;;;;;;54205;1251;1003338;-79
2024/01/14 02:08:16;;;;;;;;;;;;;;;;;;54187;1251;1057090;-79
2024/01/14 02:10:42;;;;;;;;;;;;;;;;;;54183;1250;1003268;-80
2024/01/14 02:13:09;;;;;;;;;;;;;;;;;;54144;1254;1057784;-80
2024/01/14 02:15:35;;;;;;;;;;;;;;;;;;54209;1253;1003433;-79
2024/01/14 02:18:02;;;;;;;;;;;;;;;;;;54180;1251;1038244;-79
2024/01/14 02:20:28;;;;;;;;;;;;;;;;;;54202;1251;1003125;-79
2024/01/14 02:22:55;;;;;;;;;;;;;;;;;;53632;1251;1044983;-79
2024/01/14 02:25:21;;;;;;;;;;;;;;;;;;53379;1251;1004828;-79
2024/01/14 02:27:48;;;;;;;;;;;;;;;;;;53363;1251;1061779;-79
2024/01/14 02:30:15;;;;;;;;;;;;;;;;;;53504;1251;1003478;-80
2024/01/14 02:32:41;;;;;;;;;;;;;;;;;;53348;1251;1056441;-79
2024/01/14 02:35:08;;;;;;;;;;;;;;;;;;53029;1251;1004764;-79
2024/01/14 02:37:34;;;;;;;;;;;;;;;;;;52986;1254;1058237;-80
2024/01/14 02:40:01;;;;;;;;;;;;;;;;;;52993;1251;1004950;-79
2024/01/14 02:42:27;;;;;;;;;;;;;;;;;;52954;1251;1038320;-79
2024/01/14 02:44:54;;;;;;;;;;;;;;;;;;52899;1254;1005638;-80
2024/01/14 02:47:21;;;;;;;;;;;;;;;;;;52965;1251;1046028;-79
2024/01/14 02:49:47;;;;;;;;;;;;;;;;;;52966;1253;1005158;-79
2024/01/14 02:52:14;;;;;;;;;;;;;;;;;;52939;1251;1060717;-79
2024/01/14 02:54:40;;;;;;;;;;;;;;;;;;52955;1251;1005202;-80
2024/01/14 02:57:07;;;;;;;;;;;;;;;;;;52996;1251;1057672;-79
2024/01/14 02:59:35;;;;;;;;;;;;;;;;;;52976;1251;1005268;-79
2024/01/14 03:02:01;;;;;;;;;;;;;;;;;;52936;1251;1058749;-79
2024/01/14 03:04:28;;;;;;;;;;;;;;;;;;54148;1251;1003282;-79
2024/01/14 03:06:54;;;;;;;;;;;;;;;;;;54191;1251;1038699;-79
2024/01/14 03:09:20;;;;;;;;;;;;;;;;;;54190;1254;1003252;-79
2024/01/14 03:11:47;;;;;;;;;;;;;;;;;;54224;1251;1045850;-79
2024/01/14 03:14:14;;;;;;;;;;;;;;;;;;54218;1251;1003549;-79
2024/01/14 03:16:40;;;;;;;;;;;;;;;;;;54230;1251;1060330;-79
2024/01/14 03:19:07;;;;;;;;;;;;;;;;;;54188;1250;1003081;-79
2024/01/14 03:21:33;;;;;;;;;;;;;;;;;;54205;1251;1055973;-79
2024/01/14 03:23:59;;;;;;;;;;;;;;;;;;54163;1251;1003436;-79
2024/01/14 03:26:26;;;;;;;;;;;;;;;;;;54216;1251;1057607;-79
2024/01/14 03:28:52;;;;;;;;;;;;;;;;;;54157;1254;1003087;-79
2024/01/14 03:31:19;;;;;;;;;;;;;;;;;;54193;1251;1039181;-80
2024/01/14 03:33:45;;;;;;;;;;;;;;;;;;53834;1253;1006306;-79
2024/01/14 03:36:12;;;;;;;;;;;;;;;;;;52888;1252;1044957;-79
2024/01/14 03:38:39;;;;;;;;;;;;;;;;;;52921;1251;1005715;-79
2024/01/14 03:41:05;;;;;;;;;;;;;;;;;;52990;1251;1060608;-79
2024/01/14 03:43:31;;;;;;;;;;;;;;;;;;52985;1251;1004743;-79
2024/01/14 03:45:58;;;;;;;;;;;;;;;;;;52963;1251;1057826;-79
2024/01/14 03:48:24;;;;;;;;;;;;;;;;;;52916;1253;1005700;-79
2024/01/14 03:50:51;;;;;;;;;;;;;;;;;;52942;1251;1058223;-79
2024/01/14 03:53:17;;;;;;;;;;;;;;;;;;52973;1251;1005554;-79
2024/01/14 03:55:47;;;;;;;;;;;;;;;;;;52956;1251;1038423;-79
2024/01/14 03:58:14;;;;;;;;;;;;;;;;;;53029;1251;1003551;-79
2024/01/14 04:00:41;;;;;;;;;;;;;;;;;;53007;1251;1005529;-80
2024/01/14 04:03:08;;;;;;;;;;;;;;;;;;53453;1251;1046991;-79
2024/01/14 04:05:34;;;;;;;;;;;;;;;;;;53262;1254;1005008;-80
2024/01/14 04:08:01;;;;;;;;;;;;;;;;;;53074;1253;1060564;-79
2024/01/14 04:10:27;;;;;;;;;;;;;;;;;;53005;1251;1005766;-79
2024/01/14 04:12:54;;;;;;;;;;;;;;;;;;53430;1254;1057600;-79
2024/01/14 04:15:20;;;;;;;;;;;;;;;;;;54187;1251;1003333;-79
2024/01/14 04:17:47;;;;;;;;;;;;;;;;;;54167;1254;1057759;-79
2024/01/14 04:20:13;;;;;;;;;;;;;;;;;;54170;1254;1003438;-80
2024/01/14 04:22:40;;;;;;;;;;;;;;;;;;54167;1256;1038377;-80
2024/01/14 04:25:06;;;;;;;;;;;;;;;;;;54179;1251;1003142;-79
2024/01/14 04:27:34;;;;;;;;;;;;;;;;;;54181;1252;1045018;-79
2024/01/14 04:30:00;;;;;;;;;;;;;;;;;;53416;1253;1005305;-79
2024/01/14 04:32:27;;;;;;;;;;;;;;;;;;53191;1253;1060667;-79
2024/01/14 04:34:53;;;;;;;;;;;;;;;;;;54212;1251;1003268;-79
2024/01/14 04:37:20;;;;;;;;;;;;;;;;;;54189;1251;1058126;-79
2024/01/14 04:39:46;;;;;;;;;;;;;;;;;;54192;1251;1003235;-79
2024/01/14 04:42:12;;;;;;;;;;;;;;;;;;54189;1252;1058293;-79
2024/01/14 04:44:39;;;;;;;;;;;;;;;;;;54175;1250;1003334;-79
2024/01/14 04:47:05;;;;;;;;;;;;;;;;;;54174;1251;1038518;-79
2024/01/14 04:49:32;;;;;;;;;;;;;;;;;;54200;1251;1003214;-79
2024/01/14 04:51:59;;;;;;;;;;;;;;;;;;54198;1253;1046161;-80
2024/01/14 04:54:25;;;;;;;;;;;;;;;;;;53266;1251;1005729;-79
2024/01/14 04:56:52;;;;;;;;;;;;;;;;;;52973;1253;1060420;-79
2024/01/14 04:59:19;;;;;;;;;;;;;;;;;;54222;1251;1003081;-79
2024/01/14 05:01:45;;;;;;;;;;;;;;;;;;54208;1251;1056754;-79
2024/01/14 05:04:12;;;;;;;;;;;;;;;;;;54183;1253;1003451;-79
2024/01/14 05:06:38;;;;;;;;;;;;;;;;;;54168;1251;1058163;-79
2024/01/14 05:09:05;;;;;;;;;;;;;;;;;;53654;1250;1004722;-79
2024/01/14 05:11:31;;;;;;;;;;;;;;;;;;52946;1253;1038099;-79
2024/01/14 05:13:58;;;;;;;;;;;;;;;;;;53997;1251;1003453;-79
2024/01/14 05:16:25;;;;;;;;;;;;;;;;;;54197;1251;1045428;-79
2024/01/14 05:18:51;;;;;;;;;;;;;;;;;;54190;1253;1003399;-79
2024/01/14 05:21:18;;;;;;;;;;;;;;;;;;54156;1251;1059995;-79
2024/01/14 05:23:44;;;;;;;;;;;;;;;;;;53715;1252;1005365;-79
2024/01/14 05:26:11;;;;;;;;;;;;;;;;;;52942;1253;1056741;-79
2024/01/14 05:28:38;;;;;;;;;;;;;;;;;;52999;1252;1005610;-78
2024/01/14 05:31:05;;;;;;;;;;;;;;;;;;52873;1252;1057653;-79
2024/01/14 05:33:31;;;;;;;;;;;;;;;;;;52930;1252;1004973;-79
2024/01/14 05:35:58;;;;;;;;;;;;;;;;;;52960;1251;1038035;-79
2024/01/14 05:38:24;;;;;;;;;;;;;;;;;;53012;1255;1003470;-79
2024/01/14 05:40:51;;;;;;;;;;;;;;;;;;52970;1252;1046171;-79
2024/01/14 05:43:17;;;;;;;;;;;;;;;;;;52922;1251;1005428;-79
2024/01/14 05:45:44;;;;;;;;;;;;;;;;;;53219;1251;1060772;-79
2024/01/14 05:48:10;;;;;;;;;;;;;;;;;;53611;1252;1003791;-79
2024/01/14 05:50:37;;;;;;;;;;;;;;;;;;53650;1251;1056796;-79
2024/01/14 05:53:04;;;;;;;;;;;;;;;;;;52943;1253;1005995;-79
2024/01/14 05:55:30;;;;;;;;;;;;;;;;;;52953;1251;1057721;-79
2024/01/14 05:57:56;;;;;;;;;;;;;;;;;;52950;1254;1005068;-79
2024/01/14 06:00:23;;;;;;;;;;;;;;;;;;52847;1253;1039253;-79
2024/01/14 06:02:49;;;;;;;;;;;;;;;;;;53345;1254;1005206;-79
2024/01/14 06:05:16;;;;;;;;;;;;;;;;;;52946;1253;1045588;-79
2024/01/14 06:07:43;;;;;;;;;;;;;;;;;;52969;1250;1005856;-79
2024/01/14 06:10:10;;;;;;;;;;;;;;;;;;52913;1253;1060977;-79
2024/01/14 06:12:36;;;;;;;;;;;;;;;;;;52929;1251;1005231;-79
2024/01/14 06:15:03;;;;;;;;;;;;;;;;;;52925;1251;1056985;-79
2024/01/14 06:17:29;;;;;;;;;;;;;;;;;;53285;1252;1005438;-79
2024/01/14 06:19:56;;;;;;;;;;;;;;;;;;52977;1251;1058269;-80
2024/01/14 06:22:22;;;;;;;;;;;;;;;;;;52946;1251;1005735;-79
2024/01/14 06:24:49;;;;;;;;;;;;;;;;;;52923;1251;1038430;-79
2024/01/14 06:27:15;;;;;;;;;;;;;;;;;;52959;1254;1005156;-79
2024/01/14 06:29:42;;;;;;;;;;;;;;;;;;53010;1250;1046264;-80
2024/01/14 06:32:09;;;;;;;;;;;;;;;;;;52957;1251;1005629;-79
2024/01/14 06:34:35;;;;;;;;;;;;;;;;;;52778;1250;1217049;-79
2024/01/14 06:37:03;;;;;;;;;;;;;;;;;;53142;1251;1005610;-79
2024/01/14 06:39:29;;;;;;;;;;;;;;;;;;53316;1253;1056537;-79
2024/01/14 06:41:56;;;;;;;;;;;;;;;;;;52917;1255;1005587;-79
2024/01/14 06:44:22;;;;;;;;;;;;;;;;;;52965;1253;1057681;-79
2024/01/14 06:46:51;;;;;;;;;;;;;;;;;;52867;1253;1005310;-78
2024/01/14 06:49:18;;;;;;;;;;;;;;;;;;52983;1255;1038055;-79
2024/01/14 06:51:45;;;;;;;;;;;;;;;;;;52918;1255;1005574;-79
2024/01/14 06:54:11;;;;;;;;;;;;;;;;;;52928;1252;1045590;-79
2024/01/14 06:56:38;;;;;;;;;;;;;;;;;;52956;1253;1006437;-79
2024/01/14 06:59:04;;;;;;;;;;;;;;;;;;53027;1251;1060449;-79
2024/01/14 07:01:31;;;;;;;;;;;;;;;;;;53020;1253;1005139;-80
2024/01/14 07:03:57;;;;;;;;;;;;;;;;;;52948;1255;1056565;-79
2024/01/14 07:06:24;;;;;;;;;;;;;;;;;;52966;1253;1005858;-79
2024/01/14 07:08:50;;;;;;;;;;;;;;;;;;52962;1254;1058935;-79
2024/01/14 07:11:17;;;;;;;;;;;;;;;;;;52944;1253;1006354;-79
2024/01/14 07:13:44;;;;;;;;;;;;;;;;;;52976;1255;1039261;-79
2024/01/14 07:16:10;;;;;;;;;;;;;;;;;;52909;1251;1005448;-79
2024/01/14 07:18:37;;;;;;;;;;;;;;;;;;52927;1253;1045719;-79
2024/01/14 07:21:03;;;;;;;;;;;;;;;;;;52960;1251;1005760;-79
2024/01/14 07:23:30;;;;;;;;;;;;;;;;;;52983;1250;1059846;-79
2024/01/14 07:25:56;;;;;;;;;;;;;;;;;;52933;1253;1005702;-79
2024/01/14 07:28:23;;;;;;;;;;;;;;;;;;52896;1253;1057469;-79
2024/01/14 07:30:49;;;;;;;;;;;;;;;;;;52943;1255;1005323;-79
2024/01/14 07:33:16;;;;;;;;;;;;;;;;;;53023;1253;1057552;-80
2024/01/14 07:35:42;;;;;;;;;;;;;;;;;;52920;1253;1005072;-79
2024/01/14 07:38:09;;;;;;;;;;;;;;;;;;52951;1255;1039474;-79
2024/01/14 07:40:36;;;;;;;;;;;;;;;;;;52912;1253;1005697;-80
2024/01/14 07:43:02;;;;;;;;;;;;;;;;;;53676;1250;1046796;-79
2024/01/14 07:45:29;;;;;;;;;;;;;;;;;;54189;1251;1003048;-79
2024/01/14 07:47:55;;;;;;;;;;;;;;;;;;53455;1251;1060207;-79
2024/01/14 07:50:22;;;;;;;;;;;;;;;;;;53003;1253;1004656;-80
2024/01/14 07:52:49;;;;;;;;;;;;;;;;;;52994;1256;1057597;-80
2024/01/14 07:55:15;;;;;;;;;;;;;;;;;;52942;1255;1004804;-80
2024/01/14 07:57:42;;;;;;;;;;;;;;;;;;52977;1251;1059524;-80
2024/01/14 08:00:08;;;;;;;;;;;;;;;;;;52940;1253;1005046;-80
2024/01/14 08:02:35;;;;;;;;;;;;;;;;;;53448;1251;1038722;-80
2024/01/14 08:05:01;;;;;;;;;;;;;;;;;;53155;1253;1005167;-80
2024/01/14 08:07:28;;;;;;;;;;;;;;;;;;53392;1251;1045640;-80
2024/01/14 08:09:54;;;;;;;;;;;;;;;;;;54162;1254;1003157;-80
2024/01/14 08:12:21;;;;;;;;;;;;;;;;;;54201;1251;1059765;-80
2024/01/14 08:14:47;;;;;;;;;;;;;;;;;;54188;1252;1003288;-80
2024/01/14 08:17:15;;;;;;;;;;;;;;;;;;53891;1253;1056798;-80
2024/01/14 08:19:42;;;;;;;;;;;;;;;;;;52981;1253;1005451;-79
2024/01/14 08:22:08;;;;;;;;;;;;;;;;;;52966;1252;1058216;-80
2024/01/14 08:24:35;;;;;;;;;;;;;;;;;;52938;1253;1004862;-80
2024/01/14 08:27:01;;;;;;;;;;;;;;;;;;52952;1251;1038953;-80
2024/01/14 08:29:28;;;;;;;;;;;;;;;;;;52999;1251;1005162;-80
2024/01/14 08:31:54;;;;;;;;;;;;;;;;;;52920;1252;1045702;-80
2024/01/14 08:34:21;;;;;;;;;;;;;;;;;;53015;1251;1005160;-80
2024/01/14 08:36:47;;;;;;;;;;;;;;;;;;52919;1252;1059715;-81
2024/01/14 08:39:14;;;;;;;;;;;;;;;;;;53060;1251;1005852;-82
2024/01/14 08:41:41;;;;;;;;;;;;;;;;;;53019;1251;1057534;-80
2024/01/14 08:44:10;;;;;;;;;;;;;;;;;;54158;1251;1003450;-80
2024/01/14 08:46:37;;;;;;;;;;;;;;;;;;54181;1255;1057701;-80
2024/01/14 08:49:03;;;;;;;;;;;;;;;;;;54165;1251;1003448;-80
2024/01/14 08:51:30;;;;;;;;;;;;;;;;;;54203;1251;1039260;-80
2024/01/14 08:54:00;;;;;;;;;;;;;;;;;;54146;1251;1003404;-80
2024/01/14 08:56:28;;;;;;;;;;;;;;;;;;54193;1251;1045132;-80
2024/01/14 08:58:56;;;;;;;;;;;;;;;;;;54182;1251;1003577;-80
2024/01/14 09:01:22;;;;;;;;;;;;;;;;;;54188;1251;1060383;-80
2024/01/14 09:03:49;;;;;;;;;;;;;;;;;;54172;1252;1003184;-80
2024/01/14 09:06:15;;;;;;;;;;;;;;;;;;54165;1251;1056575;-80
2024/01/14 09:08:42;;;;;;;;;;;;;;;;;;53319;1255;1005315;-80
2024/01/14 09:11:09;;;;;;;;;;;;;;;;;;52950;1251;1058680;-81
2024/01/14 09:13:35;;;;;;;;;;;;;;;;;;52953;1253;1005439;-80
2024/01/14 09:16:02;;;;;;;;;;;;;;;;;;52911;1254;1038819;-80
2024/01/14 09:18:28;;;;;;;;;;;;;;;;;;52978;1251;1004989;-80
2024/01/14 09:20:54;;;;;;;;;;;;;;;;;;53013;1251;1046738;-80
2024/01/14 09:23:21;;;;;;;;;;;;;;;;;;52965;1251;1005091;-80
2024/01/14 09:25:47;;;;;;;;;;;;;;;;;;52893;1255;1060683;-80
2024/01/14 09:28:14;;;;;;;;;;;;;;;;;;53020;1251;1004592;-80
2024/01/14 09:30:40;;;;;;;;;;;;;;;;;;52946;1251;1056857;-80
2024/01/14 09:33:07;;;;;;;;;;;;;;;;;;52914;1251;1005532;-80
2024/01/14 09:35:34;;;;;;;;;;;;;;;;;;52879;1257;1058039;-80
2024/01/14 09:38:00;;;;;;;;;;;;;;;;;;52964;1251;1005861;-80
2024/01/14 09:40:26;;;;;;;;;;;;;;;;;;52955;1254;1038648;-80
2024/01/14 09:42:53;;;;;;;;;;;;;;;;;;53696;1251;1004774;-80
2024/01/14 09:45:21;;;;;;;;;;;;;;;;;;54189;1251;1045290;-80
2024/01/14 09:47:47;;;;;;;;;;;;;;;;;;53424;1251;1005743;-80
2024/01/14 09:50:14;;;;;;;;;;;;;;;;;;52903;1254;1060789;-80
2024/01/14 09:52:41;;;;;;;;;;;;;;;;;;52931;1256;1005259;-80
2024/01/14 09:55:07;;;;;;;;;;;;;;;;;;52911;1254;1056498;-80
2024/01/14 09:57:34;;;;;;;;;;;;;;;;;;52993;1251;1005218;-80
2024/01/14 10:00:00;;;;;;;;;;;;;;;;;;52947;1254;1058431;-80
2024/01/14 10:02:27;;;;;;;;;;;;;;;;;;53466;1255;1003496;-80
2024/01/14 10:04:53;;;;;;;;;;;;;;;;;;54180;1255;1038734;-80
2024/01/14 10:07:20;;;;;;;;;;;;;;;;;;54208;1251;1003434;-81
2024/01/14 10:09:46;;;;;;;;;;;;;;;;;;54028;1256;1045311;-80
2024/01/14 10:12:13;;;;;;;;;;;;;;;;;;53332;1251;1005397;-80
2024/01/14 10:14:39;;;;;;;;;;;;;;;;;;54162;1251;1059454;-80
2024/01/14 10:17:06;;;;;;;;;;;;;;;;;;53305;1251;1005506;-80
2024/01/14 10:19:32;;;;;;;;;;;;;;;;;;54221;1251;1057504;-79
2024/01/14 10:22:00;;;;;;;;;;;;;;;;;;54080;1251;1003440;-80
2024/01/14 10:24:27;;;;;;;;;;;;;;;;;;54176;1255;1057346;-79
2024/01/14 10:26:53;;;;;;;;;;;;;;;;;;54188;1251;1003264;-80
2024/01/14 10:29:20;;;;;;;;;;;;;;;;;;54197;1251;1038445;-80
2024/01/14 10:31:46;;;;;;;;;;;;;;;;;;53343;1252;1005015;-79
2024/01/14 10:34:13;;;;;;;;;;;;;;;;;;53035;1255;1045705;-79
2024/01/14 10:36:39;;;;;;;;;;;;;;;;;;53076;1251;1003423;-79
2024/01/14 10:39:10;;;;;;;;;;;;;;;;;;54222;1251;1060365;-79
2024/01/14 10:41:36;;;;;;;;;;;;;;;;;;54168;1251;1060385;-80
2024/01/14 10:44:02;;;;;;;;;;;;;;;;;;54182;1251;1003184;-79
2024/01/14 10:46:30;;;;;;;;;;;;;;;;;;54165;1254;1057415;-79
2024/01/14 10:48:56;;;;;;;;;;;;;;;;;;54196;1251;1003099;-79
2024/01/14 10:51:23;;;;;;;;;;;;;;;;;;54149;1251;1058143;-79
2024/01/14 10:53:50;;;;;;;;;;;;;;;;;;54211;1251;1003082;-80
2024/01/14 10:56:16;;;;;;;;;;;;;;;;;;54194;1251;1038564;-80
2024/01/14 10:58:43;;;;;;;;;;;;;;;;;;54202;1251;1003414;-80
2024/01/14 11:01:09;;;;;;;;;;;;;;;;;;53029;1251;1045594;-80
2024/01/14 11:03:36;;;;;;;;;;;;;;;;;;52876;1251;1003493;-80
2024/01/14 11:06:02;;;;;;;;;;;;;;;;;;52992;1251;1060752;-80
2024/01/14 11:08:29;;;;;;;;;;;;;;;;;;52928;1251;1005129;-80
2024/01/14 11:10:56;;;;;;;;;;;;;;;;;;52857;1251;1057131;-80
2024/01/14 11:13:22;;;;;;;;;;;;;;;;;;52949;1255;1006006;-80
2024/01/14 11:15:49;;;;;;;;;;;;;;;;;;52951;1251;1058715;-80
2024/01/14 11:18:15;;;;;;;;;;;;;;;;;;52909;1251;1005394;-80
2024/01/14 11:20:44;;;;;;;;;;;;;;;;;;52942;1251;1038239;-80
2024/01/14 11:23:11;;;;;;;;;;;;;;;;;;53546;1251;1005529;-80
2024/01/14 11:25:39;;;;;;;;;;;;;;;;;;54172;1251;1003453;-80
2024/01/14 11:28:06;;;;;;;;;;;;;;;;;;54221;1251;1045421;-80
2024/01/14 11:30:32;;;;;;;;;;;;;;;;;;53813;1251;1005072;-80
2024/01/14 11:32:59;;;;;;;;;;;;;;;;;;54097;1251;1060740;-80
2024/01/14 11:35:25;;;;;;;;;;;;;;;;;;54198;1251;1003351;-80
2024/01/14 11:37:52;;;;;;;;;;;;;;;;;;54204;1251;1056742;-80
2024/01/14 11:40:18;;;;;;;;;;;;;;;;;;54212;1251;1003052;-80
2024/01/14 11:42:46;;;;;;;;;;;;;;;;;;53641;1254;1057862;-80
2024/01/14 11:45:13;;;;;;;;;;;;;;;;;;52954;1251;1005051;-80
2024/01/14 11:47:39;;;;;;;;;;;;;;;;;;52961;1251;1039578;-80
2024/01/14 11:50:06;;;;;;;;;;;;;;;;;;52886;1254;1004770;-80
2024/01/14 11:52:32;;;;;;;;;;;;;;;;;;52970;1254;1045128;-80
2024/01/14 11:54:59;;;;;;;;;;;;;;;;;;53746;1251;1003781;-80
2024/01/14 11:57:26;;;;;;;;;;;;;;;;;;52915;1251;1061417;-80
2024/01/14 11:59:52;;;;;;;;;;;;;;;;;;52987;1254;1005430;-80
2024/01/14 12:02:19;;;;;;;;;;;;;;;;;;52994;1251;1056691;-80
2024/01/14 12:04:45;;;;;;;;;;;;;;;;;;52889;1254;1005260;-80
2024/01/14 12:07:12;;;;;;;;;;;;;;;;;;52933;1251;1058295;-80
2024/01/14 12:09:38;;;;;;;;;;;;;;;;;;52926;1254;1006028;-80
2024/01/14 12:12:05;;;;;;;;;;;;;;;;;;53007;1251;1038621;-80
2024/01/14 12:14:37;;;;;;;;;;;;;;;;;;52945;1254;1005637;-80
2024/01/14 12:17:04;;;;;;;;;;;;;;;;;;52974;1251;1045696;-81
2024/01/14 12:19:30;;;;;;;;;;;;;;;;;;52986;1251;1005391;-80
2024/01/14 12:21:57;;;;;;;;;;;;;;;;;;53021;1252;1060005;-80
2024/01/14 12:24:24;;;;;;;;;;;;;;;;;;52943;1251;1005567;-80
2024/01/14 12:26:51;;;;;;;;;;;;;;;;;;52923;1251;1056305;-81
2024/01/14 12:29:17;;;;;;;;;;;;;;;;;;52936;1251;1005116;-80
2024/01/14 12:31:44;;;;;;;;;;;;;;;;;;52849;1251;1057564;-80
2024/01/14 12:34:10;;;;;;;;;;;;;;;;;;52937;1251;1004179;-80
2024/01/14 12:36:38;;;;;;;;;;;;;;;;;;52881;1254;1038531;-80
2024/01/14 12:39:05;;;;;;;;;;;;;;;;;;52973;1254;1005680;-80
2024/01/14 12:41:31;;;;;;;;;;;;;;;;;;52918;1254;1045585;-80
2024/01/14 12:43:58;;;;;;;;;;;;;;;;;;52880;1251;1005094;-80
2024/01/14 12:46:24;;;;;;;;;;;;;;;;;;52958;1251;1061068;-80
2024/01/14 12:48:51;;;;;;;;;;;;;;;;;;53010;1251;1004868;-80
2024/01/14 12:51:17;;;;;;;;;;;;;;;;;;52925;1251;1056961;-80
2024/01/14 12:53:44;;;;;;;;;;;;;;;;;;53775;1251;1003461;-80
2024/01/14 12:56:10;;;;;;;;;;;;;;;;;;54163;1251;1058055;-80
2024/01/14 12:58:37;;;;;;;;;;;;;;;;;;54168;1250;1003428;-80
2024/01/14 13:01:03;;;;;;;;;;;;;;;;;;54179;1251;1038747;-80
2024/01/14 13:03:30;;;;;;;;;;;;;;;;;;54174;1251;1003278;-80
2024/01/14 13:05:56;;;;;;;;;;;;;;;;;;54166;1251;1047517;-80
2024/01/14 13:08:23;;;;;;;;;;;;;;;;;;54170;1251;1003496;-80
2024/01/14 13:10:49;;;;;;;;;;;;;;;;;;53332;1253;1060554;-80
2024/01/14 13:13:16;;;;;;;;;;;;;;;;;;54032;1250;1005071;-80
2024/01/14 13:15:42;;;;;;;;;;;;;;;;;;53653;1251;1056056;-80
2024/01/14 13:18:09;;;;;;;;;;;;;;;;;;54023;1251;1003495;-80
2024/01/14 13:20:35;;;;;;;;;;;;;;;;;;54172;1251;1057385;-80
2024/01/14 13:23:02;;;;;;;;;;;;;;;;;;53891;1251;1004789;-80
2024/01/14 13:25:29;;;;;;;;;;;;;;;;;;53263;1251;1038918;-80
2024/01/14 13:27:56;;;;;;;;;;;;;;;;;;52908;1251;1004779;-80
2024/01/14 13:30:22;;;;;;;;;;;;;;;;;;52928;1251;1045014;-80
2024/01/14 13:32:49;;;;;;;;;;;;;;;;;;53035;1251;1005425;-81
2024/01/14 13:35:15;;;;;;;;;;;;;;;;;;52942;1254;1061007;-82
2024/01/14 13:37:42;;;;;;;;;;;;;;;;;;52854;1251;1005596;-80
2024/01/14 13:40:08;;;;;;;;;;;;;;;;;;52930;1251;1058192;-80
2024/01/14 13:42:35;;;;;;;;;;;;;;;;;;53728;1251;1003431;-80
2024/01/14 13:45:01;;;;;;;;;;;;;;;;;;54144;1251;1058304;-80
2024/01/14 13:47:28;;;;;;;;;;;;;;;;;;54158;1250;1003314;-80
2024/01/14 13:49:54;;;;;;;;;;;;;;;;;;54154;1254;1039267;-80
2024/01/14 13:52:21;;;;;;;;;;;;;;;;;;54188;1251;1003134;-80
2024/01/14 13:54:47;;;;;;;;;;;;;;;;;;54182;1251;1046815;-80
2024/01/14 13:57:14;;;;;;;;;;;;;;;;;;54200;1251;1003318;-80
2024/01/14 13:59:42;;;;;;;;;;;;;;;;;;53430;1251;1060915;-80
2024/01/14 14:02:08;;;;;;;;;;;;;;;;;;53381;1251;1003801;-80
2024/01/14 14:04:35;;;;;;;;;;;;;;;;;;53415;1251;1056614;-80
2024/01/14 14:07:02;;;;;;;;;;;;;;;;;;53537;1251;1003653;-80
2024/01/14 14:09:28;;;;;;;;;;;;;;;;;;53907;1251;1058459;-80
2024/01/14 14:11:55;;;;;;;;;;;;;;;;;;53051;1251;1005247;-80
2024/01/14 14:14:21;;;;;;;;;;;;;;;;;;53099;1251;1038371;-80
2024/01/14 14:16:48;;;;;;;;;;;;;;;;;;53377;1251;1005586;-80
2024/01/14 14:19:15;;;;;;;;;;;;;;;;;;53046;1251;1046244;-80
2024/01/14 14:21:41;;;;;;;;;;;;;;;;;;53381;1251;1005410;-80
2024/01/14 14:24:08;;;;;;;;;;;;;;;;;;54209;1251;1060632;-80
2024/01/14 14:26:34;;;;;;;;;;;;;;;;;;54164;1253;1003480;-80
2024/01/14 14:29:01;;;;;;;;;;;;;;;;;;54183;1251;1057641;-80
2024/01/14 14:31:30;;;;;;;;;;;;;;;;;;53226;1251;1005222;-81
2024/01/14 14:33:57;;;;;;;;;;;;;;;;;;53009;1253;1058918;-80
2024/01/14 14:36:24;;;;;;;;;;;;;;;;;;52887;1251;1004924;-80
2024/01/14 14:38:50;;;;;;;;;;;;;;;;;;52874;1254;1038684;-80
2024/01/14 14:41:17;;;;;;;;;;;;;;;;;;52946;1254;1003690;-80
2024/01/14 14:43:43;;;;;;;;;;;;;;;;;;52975;1251;1045655;-79
2024/01/14 14:46:10;;;;;;;;;;;;;;;;;;53042;1251;1005971;-80
2024/01/14 14:48:36;;;;;;;;;;;;;;;;;;54143;1254;1061023;-79
2024/01/14 14:51:03;;;;;;;;;;;;;;;;;;53390;1251;1004918;-79
2024/01/14 14:53:29;;;;;;;;;;;;;;;;;;54177;1252;1057244;-80
2024/01/14 14:55:56;;;;;;;;;;;;;;;;;;53878;1251;1003330;-80
2024/01/14 14:58:22;;;;;;;;;;;;;;;;;;54152;1250;1057890;-80
2024/01/14 15:00:49;;;;;;;;;;;;;;;;;;54202;1250;1003841;-80
2024/01/14 15:03:15;;;;;;;;;;;;;;;;;;54184;1251;1038198;-80
2024/01/14 15:05:42;;;;;;;;;;;;;;;;;;54194;1250;1003229;-80
2024/01/14 15:08:08;;;;;;;;;;;;;;;;;;54180;1250;1045501;-80
2024/01/14 15:10:35;;;;;;;;;;;;;;;;;;54188;1251;1003419;-81
2024/01/14 15:13:01;;;;;;;;;;;;;;;;;;54204;1251;1060976;-80
2024/01/14 15:15:29;;;;;;;;;;;;;;;;;;54192;1250;1003332;-80
2024/01/14 15:17:56;;;;;;;;;;;;;;;;;;54200;1250;1056108;-80
2024/01/14 15:20:22;;;;;;;;;;;;;;;;;;54168;1251;1003418;-80
2024/01/14 15:22:49;;;;;;;;;;;;;;;;;;54192;1250;1058616;-80
2024/01/14 15:25:15;;;;;;;;;;;;;;;;;;54182;1250;1003406;-80
2024/01/14 15:27:42;;;;;;;;;;;;;;;;;;54166;1250;1038584;-80
2024/01/14 15:30:09;;;;;;;;;;;;;;;;;;54132;1251;1003467;-80
2024/01/14 15:32:35;;;;;;;;;;;;;;;;;;52940;1251;1045637;-80
2024/01/14 15:35:02;;;;;;;;;;;;;;;;;;52961;1251;1003657;-81
2024/01/14 15:37:28;;;;;;;;;;;;;;;;;;52961;1251;1060525;-80
2024/01/14 15:39:54;;;;;;;;;;;;;;;;;;52923;1251;1006427;-80
2024/01/14 15:42:21;;;;;;;;;;;;;;;;;;52923;1251;1057594;-80
2024/01/14 15:44:48;;;;;;;;;;;;;;;;;;52908;1251;1005112;-80
2024/01/14 15:47:15;;;;;;;;;;;;;;;;;;52935;1251;1058623;-80
2024/01/14 15:49:42;;;;;;;;;;;;;;;;;;52918;1251;1005948;-80
2024/01/14 15:52:08;;;;;;;;;;;;;;;;;;52938;1251;1038359;-80
2024/01/14 15:54:35;;;;;;;;;;;;;;;;;;53473;1251;1005716;-80
2024/01/14 15:57:01;;;;;;;;;;;;;;;;;;54191;1251;1044862;-80
2024/01/14 15:59:28;;;;;;;;;;;;;;;;;;54223;1251;1003128;-80
2024/01/14 16:01:55;;;;;;;;;;;;;;;;;;54219;1251;1060491;-80
2024/01/14 16:04:21;;;;;;;;;;;;;;;;;;54178;1250;1003274;-80
2024/01/14 16:06:48;;;;;;;;;;;;;;;;;;54220;1250;1057945;-80